createdAt,value
2018-05-07T00:00:03.035Z,18.1
2018-05-07T00:00:52.834Z,18.1
2018-05-07T00:01:43.158Z,18.1
2018-05-07T00:02:32.946Z,18.2
2018-05-07T00:03:23.296Z,18.2
2018-05-07T00:04:13.360Z,18.2
2018-05-07T00:05:03.508Z,18.2
2018-05-07T00:05:53.870Z,18.2
2018-05-07T00:06:43.545Z,18.2
2018-05-07T00:07:33.690Z,18.2
2018-05-07T00:08:23.668Z,18.2
2018-05-07T00:09:14.015Z,18.2
2018-05-07T00:10:03.840Z,18.2
2018-05-07T00:10:53.912Z,18.2
2018-05-07T00:11:44.222Z,18.2
2018-05-07T00:12:34.007Z,18.2
2018-05-07T00:13:24.069Z,18.1
2018-05-07T00:14:14.182Z,18.1
2018-05-07T00:15:04.188Z,18.1
2018-05-07T00:15:53.694Z,18.1
2018-05-07T00:16:44.330Z,18.1
2018-05-07T00:17:34.091Z,18.1
2018-05-07T00:18:24.487Z,18.1
2018-05-07T00:19:14.512Z,18.1
2018-05-07T00:20:04.314Z,18.1
2018-05-07T00:20:54.365Z,18.1
2018-05-07T00:21:44.439Z,18.1
2018-05-07T00:22:34.881Z,18.1
2018-05-07T00:23:24.839Z,18.1
2018-05-07T00:24:14.917Z,18.1
2018-05-07T00:25:04.986Z,18.1
2018-05-07T00:25:55.041Z,18.1
2018-05-07T00:26:45.126Z,18.1
2018-05-07T00:27:35.206Z,18.1
2018-05-07T00:28:25.591Z,18.1
2018-05-07T00:29:15.301Z,18.1
2018-05-07T00:30:05.081Z,18.1
2018-05-07T00:30:55.466Z,18.1
2018-05-07T00:31:45.571Z,18
2018-05-07T00:32:35.551Z,18
2018-05-07T00:33:25.058Z,18
2018-05-07T00:34:15.748Z,18
2018-05-07T00:35:05.918Z,18
2018-05-07T00:35:55.811Z,18
2018-05-07T00:36:45.321Z,18
2018-05-07T00:37:35.933Z,17.9
2018-05-07T00:38:25.440Z,17.9
2018-05-07T00:39:16.083Z,17.9
2018-05-07T00:40:05.286Z,17.9
2018-05-07T00:40:56.198Z,17.9
2018-05-07T00:41:46.269Z,17.9
2018-05-07T00:42:36.052Z,17.9
2018-05-07T00:43:25.815Z,17.9
2018-05-07T00:44:16.458Z,17.9
2018-05-07T00:45:06.548Z,17.9
2018-05-07T00:45:56.008Z,17.9
2018-05-07T00:46:46.653Z,17.9
2018-05-07T00:47:36.735Z,17.9
2018-05-07T00:48:26.764Z,17.8
2018-05-07T00:49:16.822Z,17.8
2018-05-07T00:50:06.886Z,17.8
2018-05-07T00:50:57.026Z,17.8
2018-05-07T00:51:46.469Z,17.8
2018-05-07T00:52:37.087Z,17.8
2018-05-07T00:53:27.204Z,17.8
2018-05-07T00:54:16.947Z,17.8
2018-05-07T00:55:06.448Z,17.8
2018-05-07T00:55:57.349Z,17.8
2018-05-07T00:56:47.427Z,17.7
2018-05-07T00:57:37.477Z,17.7
2018-05-07T00:58:27.555Z,17.7
2018-05-07T00:59:17.623Z,17.6
2018-05-07T01:00:07.106Z,17.6
2018-05-07T01:00:57.466Z,17.6
2018-05-07T01:01:47.529Z,17.6
2018-05-07T01:02:37.867Z,17.6
2018-05-07T01:03:27.651Z,17.6
2018-05-07T01:04:17.990Z,17.6
2018-05-07T01:05:07.782Z,17.6
2018-05-07T01:05:57.861Z,17.6
2018-05-07T01:06:47.978Z,17.6
2018-05-07T01:07:38.252Z,17.6
2018-05-07T01:08:28.311Z,17.6
2018-05-07T01:09:18.111Z,17.6
2018-05-07T01:10:08.459Z,17.6
2018-05-07T01:10:58.511Z,17.6
2018-05-07T01:11:48.301Z,17.6
2018-05-07T01:12:38.657Z,17.6
2018-05-07T01:13:28.716Z,17.6
2018-05-07T01:14:18.777Z,17.6
2018-05-07T01:15:08.560Z,17.6
2018-05-07T01:15:58.902Z,17.6
2018-05-07T01:16:48.971Z,17.6
2018-05-07T01:17:38.462Z,17.6
2018-05-07T01:18:29.094Z,17.6
2018-05-07T01:19:18.889Z,17.6
2018-05-07T01:20:08.942Z,17.6
2018-05-07T01:20:59.279Z,17.6
2018-05-07T01:21:49.083Z,17.6
2018-05-07T01:22:39.420Z,17.6
2018-05-07T01:23:29.477Z,17.6
2018-05-07T01:24:19.547Z,17.6
2018-05-07T01:25:09.621Z,17.6
2018-05-07T01:25:59.390Z,17.6
2018-05-07T01:26:49.459Z,17.6
2018-05-07T01:27:39.803Z,17.6
2018-05-07T01:28:29.871Z,17.6
2018-05-07T01:29:19.928Z,17.6
2018-05-07T01:30:10.032Z,17.6
2018-05-07T01:31:00.091Z,17.6
2018-05-07T01:31:49.835Z,17.6
2018-05-07T01:32:39.920Z,17.6
2018-05-07T01:33:30.288Z,17.5
2018-05-07T01:34:20.035Z,17.5
2018-05-07T01:35:10.392Z,17.5
2018-05-07T01:36:00.160Z,17.5
2018-05-07T01:36:50.243Z,17.5
2018-05-07T01:37:40.570Z,17.4
2018-05-07T01:38:30.704Z,17.4
2018-05-07T01:39:20.713Z,17.4
2018-05-07T01:40:10.776Z,17.4
2018-05-07T01:41:00.827Z,17.4
2018-05-07T01:41:50.913Z,17.4
2018-05-07T01:42:40.980Z,17.4
2018-05-07T01:43:30.774Z,17.4
2018-05-07T01:44:20.801Z,17.4
2018-05-07T01:45:11.146Z,17.4
2018-05-07T01:46:01.207Z,17.4
2018-05-07T01:46:51.265Z,17.4
2018-05-07T01:47:41.336Z,17.4
2018-05-07T01:48:31.421Z,17.4
2018-05-07T01:49:21.483Z,17.4
2018-05-07T01:50:11.555Z,17.4
2018-05-07T01:51:01.636Z,17.4
2018-05-07T01:51:51.688Z,17.4
2018-05-07T01:52:41.744Z,17.4
2018-05-07T01:53:31.517Z,17.4
2018-05-07T01:54:21.858Z,17.4
2018-05-07T01:55:11.670Z,17.4
2018-05-07T01:56:01.990Z,17.4
2018-05-07T01:56:51.767Z,17.4
2018-05-07T01:57:42.134Z,17.4
2018-05-07T01:58:32.207Z,17.4
2018-05-07T01:59:21.971Z,17.4
2018-05-07T02:00:12.320Z,17.4
2018-05-07T02:01:02.107Z,17.4
2018-05-07T02:01:52.443Z,17.4
2018-05-07T02:02:42.238Z,17.4
2018-05-07T02:03:32.302Z,17.4
2018-05-07T02:04:22.378Z,17.4
2018-05-07T07:27:00.461Z,24.1
2018-05-07T07:27:50.551Z,24.1
2018-05-07T07:28:40.898Z,24.1
2018-05-07T07:29:30.961Z,24
2018-05-07T07:30:20.993Z,24
2018-05-07T07:31:11.077Z,23.9
2018-05-07T07:32:01.124Z,23.9
2018-05-07T07:32:51.240Z,23.9
2018-05-07T07:33:41.557Z,23.9
2018-05-07T07:34:31.334Z,23.9
2018-05-07T07:35:21.427Z,24
2018-05-07T07:36:11.454Z,24
2018-05-07T07:37:01.522Z,24
2018-05-07T07:37:51.581Z,24
2018-05-07T07:38:41.382Z,24
2018-05-07T07:39:32.029Z,23.9
2018-05-07T07:40:21.800Z,23.9
2018-05-07T07:41:11.567Z,23.9
2018-05-07T07:42:01.913Z,23.8
2018-05-07T07:42:51.740Z,23.7
2018-05-07T07:43:42.046Z,23.7
2018-05-07T07:44:32.116Z,23.6
2018-05-07T07:45:21.891Z,23.6
2018-05-07T07:46:12.239Z,23.6
2018-05-07T07:47:02.734Z,23.6
2018-05-07T07:47:52.351Z,23.6
2018-05-07T07:48:42.158Z,23.5
2018-05-07T07:49:32.528Z,23.5
2018-05-07T07:50:22.011Z,23.5
2018-05-07T07:51:12.634Z,23.6
2018-05-07T07:52:02.429Z,23.6
2018-05-07T07:52:52.757Z,23.6
2018-05-07T07:53:43.150Z,23.6
2018-05-07T07:54:32.614Z,23.7
2018-05-07T07:55:22.660Z,23.8
2018-05-07T07:56:13.013Z,23.8
2018-05-07T07:57:03.074Z,23.9
2018-05-07T07:57:52.860Z,24
2018-05-07T07:58:42.654Z,24.1
2018-05-07T07:59:33.006Z,24.2
2018-05-07T08:00:23.346Z,24.3
2018-05-07T08:01:13.450Z,24.4
2018-05-07T08:02:03.469Z,24.5
2018-05-07T08:02:52.978Z,24.6
2018-05-07T08:03:43.603Z,24.8
2018-05-07T08:04:33.395Z,25
2018-05-07T08:05:23.551Z,25.3
2018-05-07T08:06:13.526Z,25.5
2018-05-07T08:07:03.583Z,25.8
2018-05-07T08:07:53.639Z,26
2018-05-07T08:08:43.696Z,26.2
2018-05-07T08:09:34.060Z,26.4
2018-05-07T08:10:24.167Z,26.7
2018-05-07T08:11:14.185Z,26.9
2018-05-07T08:12:03.483Z,27.1
2018-05-07T08:12:54.129Z,27.4
2018-05-07T08:13:44.106Z,27.6
2018-05-07T08:14:34.449Z,27.9
2018-05-07T08:15:24.178Z,28.2
2018-05-07T08:16:14.585Z,28.4
2018-05-07T08:17:04.644Z,28.6
2018-05-07T08:17:54.699Z,28.9
2018-05-07T08:18:44.490Z,29.1
2018-05-07T08:19:34.806Z,29.3
2018-05-07T08:20:24.892Z,29.6
2018-05-07T08:21:14.967Z,29.8
2018-05-07T08:22:05.025Z,30
2018-05-07T08:22:55.115Z,30.1
2018-05-07T08:23:45.166Z,30.2
2018-05-07T08:24:35.224Z,30.3
2018-05-07T08:25:25.277Z,30.3
2018-05-07T08:26:15.060Z,30.4
2018-05-07T08:27:05.443Z,30.5
2018-05-07T08:27:55.499Z,30.7
2018-05-07T08:28:45.563Z,30.8
2018-05-07T08:29:35.329Z,31
2018-05-07T08:30:25.967Z,31.2
2018-05-07T08:31:15.743Z,31.3
2018-05-07T08:32:05.810Z,31.4
2018-05-07T08:32:55.857Z,31.6
2018-05-07T08:33:45.948Z,31.7
2018-05-07T08:34:36.069Z,31.8
2018-05-07T08:35:26.055Z,31.9
2018-05-07T08:36:15.846Z,31.9
2018-05-07T08:37:05.900Z,32.1
2018-05-07T08:37:56.313Z,32.2
2018-05-07T08:38:46.321Z,32.3
2018-05-07T08:39:36.452Z,32.5
2018-05-07T08:40:25.912Z,32.7
2018-05-07T08:41:16.516Z,32.9
2018-05-07T08:42:06.022Z,33.3
2018-05-07T08:42:56.659Z,33.6
2018-05-07T08:43:46.730Z,33.9
2018-05-07T08:44:36.780Z,34.3
2018-05-07T08:45:26.835Z,34.9
2018-05-07T08:46:16.896Z,35.5
2018-05-07T08:47:06.979Z,35.8
2018-05-07T08:47:57.045Z,35.9
2018-05-07T08:48:46.536Z,36.1
2018-05-07T08:49:37.252Z,36.1
2018-05-07T08:50:26.972Z,36.1
2018-05-07T08:51:17.295Z,36.1
2018-05-07T08:52:07.104Z,36.2
2018-05-07T08:52:57.481Z,36.3
2018-05-07T08:53:47.498Z,36.3
2018-05-07T08:54:37.550Z,36.4
2018-05-07T08:55:27.630Z,36.5
2018-05-07T08:56:17.695Z,36.5
2018-05-07T08:57:07.788Z,36.6
2018-05-07T08:57:57.540Z,36.6
2018-05-07T08:58:47.873Z,36.6
2018-05-07T08:59:37.965Z,36.6
2018-05-07T09:00:28.016Z,36.7
2018-05-07T09:01:18.089Z,36.6
2018-05-07T09:02:08.431Z,36.6
2018-05-07T09:02:58.213Z,36.6
2018-05-07T09:03:48.352Z,36.7
2018-05-07T09:04:38.363Z,36.8
2018-05-07T09:05:28.412Z,36.9
2018-05-07T09:06:18.196Z,37
2018-05-07T09:07:08.257Z,37.1
2018-05-07T09:07:58.515Z,37.2
2018-05-07T09:08:48.661Z,37.3
2018-05-07T09:09:38.735Z,37.3
2018-05-07T09:10:28.805Z,37.4
2018-05-07T09:11:18.900Z,37.4
2018-05-07T09:12:08.683Z,37.4
2018-05-07T09:12:58.737Z,37.5
2018-05-07T09:13:48.789Z,37.6
2018-05-07T09:14:38.580Z,37.8
2018-05-07T09:15:28.626Z,37.9
2018-05-07T09:16:19.269Z,38
2018-05-07T09:17:09.341Z,38.2
2018-05-07T09:17:59.396Z,38.3
2018-05-07T09:18:49.450Z,38.4
2018-05-07T09:19:39.533Z,38.5
2018-05-07T09:20:29.396Z,38.6
2018-05-07T09:21:19.376Z,38.6
2018-05-07T09:22:09.726Z,38.7
2018-05-07T09:22:59.499Z,38.8
2018-05-07T09:23:49.312Z,38.8
2018-05-07T09:24:39.707Z,38.9
2018-05-07T09:25:29.985Z,39
2018-05-07T09:26:20.136Z,39.1
2018-05-07T09:27:09.841Z,39.1
2018-05-07T09:27:59.325Z,39.2
2018-05-07T09:28:50.261Z,39.3
2018-05-07T09:29:40.324Z,39.4
2018-05-07T09:30:30.383Z,39.4
2018-05-07T09:31:20.455Z,39.5
2018-05-07T09:32:10.234Z,39.6
2018-05-07T09:33:00.586Z,39.6
2018-05-07T09:33:50.089Z,39.7
2018-05-07T09:34:40.711Z,39.8
2018-05-07T09:35:30.766Z,39.8
2018-05-07T09:36:20.838Z,39.9
2018-05-07T09:37:10.627Z,39.9
2018-05-07T09:38:00.693Z,40
2018-05-07T09:38:51.047Z,40
2018-05-07T09:39:41.104Z,40.1
2018-05-07T09:40:31.162Z,40.1
2018-05-07T09:41:21.254Z,40.1
2018-05-07T09:42:11.313Z,40.2
2018-05-07T09:43:00.882Z,40.3
2018-05-07T09:43:51.426Z,40.3
2018-05-07T09:44:41.215Z,40.3
2018-05-07T09:45:31.267Z,40.4
2018-05-07T09:46:21.620Z,40.4
2018-05-07T09:47:11.697Z,40.4
2018-05-07T09:48:01.481Z,40.4
2018-05-07T09:48:51.968Z,40.5
2018-05-07T09:49:41.895Z,40.4
2018-05-07T09:50:31.971Z,40.4
2018-05-07T09:51:22.012Z,40.4
2018-05-07T09:52:12.081Z,40.4
2018-05-07T09:53:02.151Z,40.4
2018-05-07T09:53:51.938Z,40.4
2018-05-07T09:54:42.298Z,40.4
2018-05-07T09:55:32.063Z,40.4
2018-05-07T09:56:22.401Z,40.4
2018-05-07T09:57:12.475Z,40.4
2018-05-07T09:58:02.556Z,40.4
2018-05-07T09:58:52.621Z,40.4
2018-05-07T09:59:42.666Z,40.3
2018-05-07T10:00:32.258Z,40.1
2018-05-07T10:01:22.797Z,40
2018-05-07T10:02:12.606Z,39.9
2018-05-07T10:03:02.936Z,39.8
2018-05-07T10:03:52.999Z,39.6
2018-05-07T10:04:43.060Z,39.5
2018-05-07T10:05:32.835Z,39.4
2018-05-07T10:06:22.948Z,39.2
2018-05-07T10:07:13.281Z,39
2018-05-07T10:08:03.046Z,38.8
2018-05-07T10:08:53.122Z,38.6
2018-05-07T10:09:43.487Z,38.3
2018-05-07T10:10:33.519Z,38
2018-05-07T10:11:23.037Z,37.7
2018-05-07T10:12:13.642Z,37.4
2018-05-07T10:13:03.710Z,37.2
2018-05-07T10:13:53.226Z,37
2018-05-07T10:14:43.853Z,36.8
2018-05-07T10:15:33.987Z,36.6
2018-05-07T10:16:23.720Z,36.4
2018-05-07T10:17:14.051Z,36.3
2018-05-07T10:18:04.115Z,36.3
2018-05-07T10:18:54.204Z,36.2
2018-05-07T10:19:43.964Z,36.1
2018-05-07T10:20:34.321Z,36.1
2018-05-07T10:21:24.408Z,36.1
2018-05-07T10:22:14.183Z,36.1
2018-05-07T10:23:04.515Z,36.1
2018-05-07T10:23:54.081Z,36.1
2018-05-07T10:24:44.631Z,36.1
2018-05-07T10:25:34.418Z,36
2018-05-07T10:26:24.776Z,35.9
2018-05-07T10:27:14.543Z,35.8
2018-05-07T10:28:54.773Z,85
2018-05-07T10:29:44.648Z,35.8
2018-05-07T10:30:35.103Z,35.9
2018-05-07T10:31:25.180Z,36
2018-05-07T10:32:15.206Z,36.1
2018-05-07T10:33:05.287Z,36.3
2018-05-07T10:33:55.362Z,36.3
2018-05-07T10:34:45.444Z,36.4
2018-05-07T10:35:35.206Z,36.4
2018-05-07T10:36:25.565Z,36.4
2018-05-07T10:37:15.618Z,36.4
2018-05-07T10:38:05.680Z,36.4
2018-05-07T10:38:54.890Z,36.6
2018-05-07T10:39:45.524Z,36.8
2018-05-07T10:40:35.599Z,36.9
2018-05-07T10:41:25.371Z,37.1
2018-05-07T10:42:16.001Z,37.1
2018-05-07T10:43:06.076Z,37
2018-05-07T10:43:55.854Z,36.9
2018-05-07T10:44:46.203Z,36.7
2018-05-07T10:45:36.285Z,36.5
2018-05-07T10:46:26.353Z,36.4
2018-05-07T10:47:16.430Z,36.3
2018-05-07T10:48:06.481Z,36.2
2018-05-07T10:48:56.569Z,36.1
2018-05-07T10:49:46.624Z,36.1
2018-05-07T10:50:36.391Z,36.1
2018-05-07T10:51:26.457Z,36
2018-05-07T10:52:16.501Z,35.9
2018-05-07T10:53:06.865Z,35.9
2018-05-07T10:53:56.672Z,35.9
2018-05-07T10:54:47.004Z,35.9
2018-05-07T10:55:36.761Z,36
2018-05-07T10:56:26.848Z,36
2018-05-07T10:57:16.902Z,36.1
2018-05-07T10:58:07.239Z,36.2
2018-05-07T10:58:57.334Z,36.3
2018-05-07T10:59:47.390Z,36.3
2018-05-07T11:00:37.435Z,36.3
2018-05-07T11:01:27.537Z,36.3
2018-05-07T11:02:17.305Z,36.3
2018-05-07T11:03:07.369Z,36.3
2018-05-07T11:03:57.703Z,36.3
2018-05-07T11:04:47.497Z,36.3
2018-05-07T11:05:37.829Z,36.3
2018-05-07T11:06:27.904Z,36.4
2018-05-07T11:07:18.073Z,36.4
2018-05-07T11:08:08.029Z,36.3
2018-05-07T11:08:57.812Z,36.3
2018-05-07T11:09:48.146Z,36.3
2018-05-07T11:10:38.211Z,36.3
2018-05-07T11:11:28.277Z,36.3
2018-05-07T11:12:18.076Z,36.3
2018-05-07T11:13:08.400Z,36.3
2018-05-07T11:13:58.497Z,36.2
2018-05-07T11:14:48.577Z,36.1
2018-05-07T11:15:38.032Z,36.1
2018-05-07T11:16:28.415Z,36.1
2018-05-07T11:17:18.754Z,36
2018-05-07T11:18:08.521Z,36
2018-05-07T11:18:58.854Z,36
2018-05-07T11:19:49.309Z,36
2018-05-07T11:20:38.709Z,36
2018-05-07T11:21:29.059Z,36
2018-05-07T11:22:19.126Z,36.1
2018-05-07T11:23:09.211Z,36
2018-05-07T11:23:58.966Z,36.1
2018-05-07T11:24:49.341Z,36
2018-05-07T11:25:39.383Z,36
2018-05-07T11:26:29.455Z,35.9
2018-05-07T11:27:19.500Z,36
2018-05-07T11:28:09.575Z,35.9
2018-05-07T11:28:59.659Z,35.9
2018-05-07T11:29:49.704Z,35.9
2018-05-07T11:30:39.489Z,35.9
2018-05-07T11:31:29.848Z,35.9
2018-05-07T11:32:19.632Z,35.8
2018-05-07T11:33:09.965Z,35.8
2018-05-07T11:33:59.769Z,35.8
2018-05-07T11:34:50.172Z,35.7
2018-05-07T11:35:40.183Z,35.7
2018-05-07T11:36:30.244Z,35.7
2018-05-07T11:37:20.292Z,35.7
2018-05-07T11:38:10.358Z,35.8
2018-05-07T11:39:00.581Z,35.8
2018-05-07T11:39:50.507Z,35.9
2018-05-07T11:40:40.563Z,35.9
2018-05-07T11:41:30.365Z,36.1
2018-05-07T11:42:20.418Z,36.1
2018-05-07T11:43:10.483Z,36.3
2018-05-07T11:44:00.253Z,36.3
2018-05-07T11:44:50.048Z,36.4
2018-05-07T11:45:40.685Z,36.6
2018-05-07T11:46:30.440Z,36.7
2018-05-07T11:47:20.985Z,36.8
2018-05-07T11:48:11.140Z,36.9
2018-05-07T11:49:00.945Z,37
2018-05-07T11:49:51.287Z,37
2018-05-07T11:50:41.351Z,37.1
2018-05-07T11:51:31.430Z,37.1
2018-05-07T11:52:21.479Z,37.2
2018-05-07T11:53:11.916Z,37.3
2018-05-07T11:54:01.600Z,37.3
2018-05-07T11:54:51.392Z,37.3
2018-05-07T11:55:41.747Z,37.4
2018-05-07T11:56:31.809Z,37.5
2018-05-07T11:57:21.874Z,37.6
2018-05-07T11:58:11.657Z,37.6
2018-05-07T11:59:01.722Z,37.7
2018-05-07T11:59:52.058Z,37.8
2018-05-07T12:00:42.211Z,37.9
2018-05-07T12:01:32.183Z,38
2018-05-07T12:02:22.616Z,38.1
2018-05-07T12:03:12.332Z,38.1
2018-05-07T12:04:01.835Z,38.1
2018-05-07T12:04:52.453Z,38.2
2018-05-07T12:05:42.442Z,38.3
2018-05-07T12:06:32.591Z,38.4
2018-05-07T12:07:22.665Z,38.5
2018-05-07T12:08:12.709Z,38.6
2018-05-07T12:09:03.232Z,38.8
2018-05-07T12:09:52.571Z,38.9
2018-05-07T12:10:42.351Z,38.9
2018-05-07T12:11:32.763Z,39.1
2018-05-07T12:12:23.110Z,39.3
2018-05-07T12:13:12.257Z,39.4
2018-05-07T12:14:02.617Z,39.6
2018-05-07T12:14:52.944Z,39.8
2018-05-07T12:15:43.090Z,39.9
2018-05-07T12:16:33.375Z,40.1
2018-05-07T12:17:22.855Z,40.1
2018-05-07T12:18:13.482Z,40.2
2018-05-07T12:19:03.634Z,40.3
2018-05-07T12:19:53.628Z,40.3
2018-05-07T12:20:43.700Z,40.3
2018-05-07T12:21:33.754Z,40.3
2018-05-07T12:22:23.261Z,40.3
2018-05-07T12:23:14.294Z,40.3
2018-05-07T12:24:04.041Z,40.3
2018-05-07T12:24:53.725Z,40.3
2018-05-07T12:25:44.091Z,40.4
2018-05-07T12:26:33.589Z,40.4
2018-05-07T12:27:24.219Z,40.5
2018-05-07T12:28:14.070Z,40.6
2018-05-07T12:29:04.052Z,40.9
2018-05-07T12:29:54.436Z,41.3
2018-05-07T12:30:44.468Z,41.7
2018-05-07T12:31:34.482Z,42.4
2018-05-07T12:32:24.595Z,43.3
2018-05-07T12:33:14.655Z,43.9
2018-05-07T12:34:04.464Z,44.3
2018-05-07T12:34:54.526Z,44.6
2018-05-07T12:35:44.310Z,44.8
2018-05-07T12:36:34.971Z,45.1
2018-05-07T12:37:25.008Z,45.3
2018-05-07T12:38:14.498Z,45.3
2018-05-07T12:39:04.857Z,45.2
2018-05-07T12:39:55.244Z,45.1
2018-05-07T12:40:45.258Z,45.1
2018-05-07T12:41:35.321Z,45.1
2018-05-07T12:42:25.374Z,45.1
2018-05-07T12:43:15.448Z,45.1
2018-05-07T12:44:05.243Z,45.2
2018-05-07T12:44:55.588Z,45.2
2018-05-07T12:45:45.664Z,45.3
2018-05-07T12:46:35.735Z,45.4
2018-05-07T12:47:25.801Z,45.3
2018-05-07T12:48:15.848Z,45.3
2018-05-07T12:49:05.922Z,45.2
2018-05-07T12:49:55.991Z,45.1
2018-05-07T12:50:45.774Z,45
2018-05-07T12:51:35.834Z,44.9
2018-05-07T12:52:26.363Z,44.7
2018-05-07T12:53:16.253Z,44.5
2018-05-07T12:54:05.835Z,44.3
2018-05-07T12:54:56.383Z,44.1
2018-05-07T12:55:46.153Z,44
2018-05-07T12:56:36.525Z,43.9
2018-05-07T12:57:26.313Z,43.9
2018-05-07T12:58:16.447Z,43.8
2018-05-07T12:59:06.993Z,43.8
2018-05-07T12:59:56.218Z,43.8
2018-05-07T13:00:46.833Z,43.8
2018-05-07T13:01:36.916Z,43.8
2018-05-07T13:02:26.994Z,43.8
2018-05-07T13:03:17.047Z,43.9
2018-05-07T13:04:07.108Z,44.2
2018-05-07T13:04:56.895Z,44.5
2018-05-07T13:05:47.549Z,44.9
2018-05-07T13:06:37.029Z,45.3
2018-05-07T13:07:27.376Z,45.8
2018-05-07T13:08:17.160Z,46.4
2018-05-07T13:09:07.236Z,46.9
2018-05-07T13:09:57.580Z,47.4
2018-05-07T13:10:47.355Z,47.7
2018-05-07T13:11:38.148Z,47.9
2018-05-07T13:12:27.789Z,48.2
2018-05-07T13:13:17.547Z,48.3
2018-05-07T13:14:07.909Z,48.2
2018-05-07T13:14:57.665Z,48
2018-05-07T13:15:47.473Z,47.9
2018-05-07T13:16:37.810Z,48.1
2018-05-07T13:17:28.149Z,48.3
2018-05-07T13:18:18.242Z,48.7
2018-05-07T13:19:08.354Z,49
2018-05-07T13:19:58.346Z,49.3
2018-05-07T13:20:48.434Z,49.4
2018-05-07T13:21:38.489Z,49.6
2018-05-07T13:22:28.531Z,49.6
2018-05-07T13:23:18.612Z,49.6
2018-05-07T13:24:08.772Z,49.6
2018-05-07T13:24:59.103Z,49.6
2018-05-07T13:25:48.809Z,49.8
2018-05-07T13:26:38.591Z,49.9
2018-05-07T13:27:28.666Z,50.1
2018-05-07T13:28:18.741Z,50.1
2018-05-07T13:29:09.068Z,50.2
2018-05-07T13:29:58.854Z,50.3
2018-05-07T13:30:48.993Z,50.2
2018-05-07T13:31:39.263Z,50.2
2018-05-07T13:32:29.352Z,50.1
2018-05-07T13:33:19.467Z,50.1
2018-05-07T13:34:09.455Z,49.9
2018-05-07T13:34:59.570Z,49.9
2018-05-07T13:35:49.615Z,49.9
2018-05-07T13:36:39.387Z,49.8
2018-05-07T13:37:29.477Z,49.8
2018-05-07T13:38:19.823Z,49.6
2018-05-07T13:39:09.601Z,49.5
2018-05-07T13:39:59.937Z,49.4
2018-05-07T13:40:50.019Z,49.2
2018-05-07T13:41:40.075Z,49.1
2018-05-07T13:42:30.122Z,49
2018-05-07T13:43:19.921Z,48.9
2018-05-07T13:44:10.258Z,48.8
2018-05-07T13:45:00.344Z,48.8
2018-05-07T13:45:50.393Z,48.7
2018-05-07T13:46:40.460Z,48.6
2018-05-07T13:47:30.538Z,48.6
2018-05-07T13:48:20.606Z,48.4
2018-05-07T13:49:10.393Z,48.2
2018-05-07T13:50:00.439Z,47.9
2018-05-07T13:50:50.825Z,47.7
2018-05-07T13:51:40.848Z,47.5
2018-05-07T13:52:30.920Z,47.3
2018-05-07T13:53:20.989Z,47.3
2018-05-07T13:54:11.043Z,47.2
2018-05-07T13:55:01.142Z,47.3
2018-05-07T13:55:50.954Z,47.3
2018-05-07T13:56:41.244Z,47.3
2018-05-07T13:57:31.052Z,47.3
2018-05-07T13:58:21.395Z,47.3
2018-05-07T13:59:11.452Z,47.3
2018-05-07T14:00:01.516Z,47.3
2018-05-07T14:00:51.615Z,47.2
2018-05-07T14:01:41.649Z,47.1
2018-05-07T14:02:31.725Z,47.1
2018-05-07T14:03:21.511Z,46.9
2018-05-07T14:04:11.866Z,46.9
2018-05-07T14:05:01.908Z,46.9
2018-05-07T14:05:51.971Z,46.8
2018-05-07T14:06:41.773Z,46.8
2018-05-07T14:07:32.111Z,46.7
2018-05-07T14:08:22.192Z,46.6
2018-05-07T14:09:12.248Z,46.6
2018-05-07T14:10:02.060Z,46.4
2018-05-07T14:10:52.379Z,46.3
2018-05-07T14:11:42.151Z,46.1
2018-05-07T14:12:32.520Z,46.1
2018-05-07T14:13:22.602Z,45.9
2018-05-07T14:14:12.636Z,45.9
2018-05-07T14:15:02.429Z,45.8
2018-05-07T14:15:52.773Z,45.7
2018-05-07T14:16:43.164Z,45.5
2018-05-07T14:17:32.636Z,45.4
2018-05-07T14:18:22.973Z,45.4
2018-05-07T14:19:12.794Z,45.3
2018-05-07T14:20:03.129Z,45.3
2018-05-07T14:20:53.183Z,45.2
2018-05-07T14:21:43.244Z,45.1
2018-05-07T14:22:33.028Z,45.1
2018-05-07T14:23:23.366Z,45
2018-05-07T14:24:13.449Z,44.9
2018-05-07T14:25:03.547Z,44.8
2018-05-07T14:25:53.562Z,44.7
2018-05-07T14:26:43.632Z,44.6
2018-05-07T14:27:33.700Z,44.4
2018-05-07T14:28:23.780Z,44.3
2018-05-07T14:29:13.853Z,44.2
2018-05-07T14:30:03.906Z,44.1
2018-05-07T14:30:53.700Z,43.9
2018-05-07T14:31:44.040Z,43.9
2018-05-07T14:32:34.127Z,43.7
2018-05-07T14:33:23.978Z,43.6
2018-05-07T14:34:13.478Z,43.4
2018-05-07T14:35:04.313Z,43.4
2018-05-07T14:35:54.104Z,43.3
2018-05-07T14:36:44.424Z,43.1
2018-05-07T14:37:34.487Z,42.9
2018-05-07T14:38:24.570Z,42.8
2018-05-07T14:39:14.623Z,42.6
2018-05-07T14:40:04.709Z,42.5
2018-05-07T14:40:54.774Z,42.3
2018-05-07T15:10:57.150Z,85
2018-05-07T15:11:46.912Z,38.6
2018-05-07T15:12:37.271Z,38.4
2018-05-07T15:13:27.329Z,38.3
2018-05-07T15:14:17.394Z,38.3
2018-05-07T15:15:07.470Z,38.2
2018-05-07T15:15:57.522Z,38.2
2018-05-07T15:16:47.601Z,38.2
2018-05-07T15:17:37.676Z,38.1
2018-05-07T15:18:27.725Z,38.1
2018-05-07T15:19:17.516Z,38.1
2018-05-07T15:20:07.859Z,38.1
2018-05-07T15:20:57.937Z,38
2018-05-07T15:21:47.993Z,37.9
2018-05-07T15:22:38.064Z,37.8
2018-05-07T15:23:28.583Z,37.7
2018-05-07T15:24:18.181Z,37.6
2018-05-07T15:25:07.975Z,37.4
2018-05-07T15:25:58.326Z,37.4
2018-05-07T15:26:47.819Z,37.3
2018-05-07T15:27:38.172Z,37.1
2018-05-07T15:28:28.535Z,37
2018-05-07T15:29:18.958Z,36.9
2018-05-07T15:30:08.672Z,36.8
2018-05-07T15:30:58.722Z,36.8
2018-05-07T15:31:48.792Z,36.7
2018-05-07T15:32:38.844Z,36.6
2018-05-07T15:33:28.347Z,36.6
2018-05-07T15:34:18.983Z,36.5
2018-05-07T15:35:09.060Z,36.4
2018-05-07T15:35:58.827Z,36.3
2018-05-07T15:36:48.913Z,36.3
2018-05-07T15:37:39.243Z,36.2
2018-05-07T15:38:29.034Z,36.1
2018-05-07T15:39:19.411Z,35.9
2018-05-07T15:40:09.449Z,35.9
2018-05-07T15:40:59.241Z,35.8
2018-05-07T15:41:49.571Z,35.7
2018-05-07T15:42:38.795Z,35.6
2018-05-07T15:43:29.723Z,35.5
2018-05-07T15:44:19.506Z,35.4
2018-05-07T15:45:09.848Z,35.4
2018-05-07T15:45:59.618Z,35.3
2018-05-07T15:46:49.995Z,35.2
2018-05-07T15:47:40.046Z,35.1
2018-05-07T15:48:30.118Z,34.9
2018-05-07T15:49:20.526Z,34.9
2018-05-07T15:50:09.674Z,34.8
2018-05-07T15:51:00.016Z,34.7
2018-05-07T15:51:50.376Z,34.6
2018-05-07T15:52:40.418Z,34.5
2018-05-07T15:53:30.480Z,34.4
2018-05-07T15:54:20.581Z,34.3
2018-05-07T15:55:10.622Z,34.3
2018-05-07T15:56:01.228Z,34.1
2018-05-07T15:56:50.749Z,34.1
2018-05-07T15:57:40.848Z,34.1
2018-05-07T15:58:30.925Z,34
2018-05-07T15:59:20.952Z,33.9
2018-05-07T16:00:10.462Z,33.9
2018-05-07T16:01:00.811Z,33.9
2018-05-07T16:01:51.157Z,33.8
2018-05-07T16:02:41.575Z,33.8
2018-05-07T16:03:31.015Z,33.7
2018-05-07T16:04:21.089Z,33.6
2018-05-07T16:05:10.854Z,33.6
2018-05-07T16:06:01.515Z,33.6
2018-05-07T16:06:51.568Z,33.5
2018-05-07T16:07:41.060Z,33.4
2018-05-07T16:08:31.741Z,33.4
2018-05-07T16:09:21.482Z,33.3
2018-05-07T16:10:11.802Z,33.3
2018-05-07T16:11:01.892Z,33.3
2018-05-07T16:11:52.039Z,33.1
2018-05-07T16:12:42.062Z,33.1
2018-05-07T16:13:32.067Z,32.9
2018-05-07T16:14:22.139Z,32.9
2018-05-07T16:15:12.435Z,32.8
2018-05-07T16:16:01.992Z,32.8
2018-05-07T16:16:52.366Z,32.6
2018-05-07T16:17:42.353Z,32.6
2018-05-07T16:18:32.668Z,32.4
2018-05-07T16:19:22.243Z,32.3
2018-05-07T16:20:12.614Z,32.2
2018-05-07T16:21:02.410Z,32.1
2018-05-07T16:21:52.892Z,32
2018-05-07T16:22:42.786Z,31.9
2018-05-07T16:23:34.031Z,31.8
2018-05-07T16:24:22.917Z,31.6
2018-05-07T16:25:12.732Z,31.5
2018-05-07T16:26:03.079Z,31.3
2018-05-07T16:26:53.131Z,31.3
2018-05-07T16:27:43.190Z,31.1
2018-05-07T16:28:33.243Z,30.9
2018-05-07T16:29:23.041Z,30.8
2018-05-07T16:30:13.099Z,30.7
2018-05-07T16:31:03.574Z,30.6
2018-05-07T16:31:53.543Z,30.5
2018-05-07T16:32:43.578Z,30.4
2018-05-07T16:33:33.647Z,30.3
2018-05-07T16:34:23.717Z,30.2
2018-05-07T16:35:13.523Z,30.1
2018-05-07T16:36:03.871Z,30
2018-05-07T16:36:53.647Z,29.9
2018-05-07T16:37:44.493Z,29.8
2018-05-07T16:38:34.562Z,29.7
2018-05-07T16:39:23.555Z,29.6
2018-05-07T16:40:14.241Z,29.6
2018-05-07T16:41:04.260Z,29.4
2018-05-07T16:41:54.328Z,29.4
2018-05-07T16:42:44.642Z,29.3
2018-05-07T16:43:34.163Z,29.1
2018-05-07T16:44:24.497Z,29.1
2018-05-07T16:45:14.592Z,29
2018-05-07T16:46:04.086Z,28.9
2018-05-07T16:46:54.720Z,28.8
2018-05-07T16:47:44.760Z,28.7
2018-05-07T16:48:35.110Z,28.6
2018-05-07T16:49:24.322Z,28.5
2018-05-07T16:50:14.965Z,28.4
2018-05-07T16:51:05.038Z,28.4
2018-05-07T16:51:54.542Z,28.3
2018-05-07T16:52:45.171Z,28.2
2018-05-07T16:53:35.341Z,28.1
2018-05-07T16:54:26.038Z,28
2018-05-07T16:55:15.067Z,27.9
2018-05-07T16:56:05.143Z,27.9
2018-05-07T16:56:55.490Z,27.8
2018-05-07T16:57:45.565Z,27.7
2018-05-07T16:58:35.342Z,27.6
2018-05-07T16:59:25.934Z,27.5
2018-05-07T17:00:15.760Z,27.4
2018-05-07T17:01:05.817Z,27.3